Time;durP1;ratioP1;P1;durP2;ratioP2;P2;SDS_P1;SDS_P2;PMS_P1;PMS_P2;Temp;Humidity;BMP_temperature;BMP_pressure;BME280_temperature;BME280_humidity;BME280_pressure;Samples;Min_cycle;Max_cycle;Signal;HPM_P1;HPM_P2
2022/04/04 00:00:20;;;;;;;2.53;1.17;;;22.70;99.90;;;;;;5032960;28;20221;-90
2022/04/04 00:02:51;;;;;;;3.63;1.13;;;22.80;99.90;;;;;;5029484;28;20190;-87
2022/04/04 00:05:21;;;;;;;4.80;1.60;;;23.00;99.90;;;;;;5032858;28;20236;-90
2022/04/04 00:07:52;;;;;;;5.90;1.55;;;23.00;99.90;;;;;;5033059;28;20186;-84
2022/04/04 00:10:22;;;;;;;2.67;1.15;;;23.10;99.90;;;;;;5033106;28;20195;-90
2022/04/04 00:12:53;;;;;;;4.60;1.10;;;23.10;99.90;;;;;;5033220;28;20193;-85
2022/04/04 00:15:26;;;;;;;3.85;1.27;;;23.10;99.90;;;;;;5032564;28;20186;-86
2022/04/04 00:17:56;;;;;;;4.85;1.35;;;23.10;99.90;;;;;;5032982;28;20691;-87
2022/04/04 00:20:28;;;;;;;4.35;1.20;;;23.20;99.90;;;;;;5032947;28;20301;-77
2022/04/04 00:22:59;;;;;;;3.58;1.20;;;23.20;99.90;;;;;;5033019;28;20221;-82
2022/04/04 00:25:30;;;;;;;4.72;1.48;;;23.40;99.90;;;;;;5032724;28;20190;-83
2022/04/04 00:28:00;;;;;;;4.00;1.63;;;23.40;99.90;;;;;;5031147;28;20202;-85
2022/04/04 00:30:33;;;;;;;3.63;1.20;;;23.40;99.90;;;;;;5032715;28;20182;-86
2022/04/04 00:33:03;;;;;;;3.92;1.30;;;23.60;99.90;;;;;;5031885;28;20224;-80
2022/04/04 00:35:34;;;;;;;3.72;1.17;;;23.70;99.90;;;;;;5029250;28;20245;-83
2022/04/04 00:38:08;;;;;;;6.90;1.17;;;23.80;99.90;;;;;;5031413;28;20194;-78
2022/04/04 00:40:38;;;;;;;2.97;1.05;;;23.90;99.90;;;;;;5028957;28;20218;-88
2022/04/04 00:43:09;;;;;;;4.05;1.27;;;24.10;99.90;;;;;;5023850;28;20279;-91
2022/04/04 00:45:47;;;;;;;4.97;1.10;;;24.10;99.90;;;;;;5030352;28;20202;-83
2022/04/04 00:48:18;;;;;;;6.82;1.13;;;24.30;99.90;;;;;;5029663;28;20246;-80
2022/04/04 00:50:48;;;;;;;5.72;1.00;;;24.40;99.90;;;;;;5030163;28;20668;-80
2022/04/04 00:53:19;;;;;;;3.70;1.35;;;24.60;99.90;;;;;;5031393;28;20255;-76
2022/04/04 00:55:50;;;;;;;2.65;1.20;;;24.50;99.90;;;;;;5032293;28;20213;-84
2022/04/04 00:58:23;;;;;;;4.15;1.10;;;24.60;99.90;;;;;;5030354;28;20209;-83
2022/04/04 01:00:56;;;;;;;4.97;1.60;;;24.60;99.90;;;;;;5029726;28;20222;-87
2022/04/04 01:03:26;;;;;;;3.00;1.00;;;24.70;99.90;;;;;;5029553;28;20711;-85
2022/04/04 01:05:59;;;;;;;3.50;1.30;;;24.90;99.90;;;;;;5029191;28;20195;-87
2022/04/04 01:08:31;;;;;;;3.58;1.20;;;25.00;99.90;;;;;;5028428;28;20205;-83
2022/04/04 01:11:02;;;;;;;2.22;1.27;;;25.00;99.90;;;;;;5029701;28;20568;-88
2022/04/04 01:13:35;;;;;;;2.00;1.00;;;25.20;99.90;;;;;;5032180;28;20649;-88
2022/04/04 01:16:08;;;;;;;2.13;1.10;;;25.20;99.90;;;;;;5030124;28;20719;-82
2022/04/04 01:18:39;;;;;;;3.35;1.20;;;25.20;99.90;;;;;;5030247;28;20198;-88
2022/04/04 01:21:09;;;;;;;2.38;0.90;;;25.20;99.90;;;;;;5033755;28;20226;-86
2022/04/04 01:23:43;;;;;;;57.58;32.67;;;25.20;99.90;;;;;;5031579;28;20198;-80
2022/04/04 01:26:16;;;;;;;58.83;35.90;;;25.30;99.90;;;;;;5032815;28;20206;-74
2022/04/04 01:28:47;;;;;;;24.05;11.18;;;25.40;99.90;;;;;;5033668;28;20195;-73
2022/04/04 01:31:17;;;;;;;7.20;3.80;;;25.50;99.90;;;;;;5034034;28;20228;-74
2022/04/04 01:33:48;;;;;;;3.25;1.75;;;25.50;99.90;;;;;;5031639;28;20614;-70
2022/04/04 01:36:18;;;;;;;5.55;1.40;;;25.50;99.90;;;;;;5035417;28;20653;-70
2022/04/04 01:38:49;;;;;;;2.65;1.25;;;25.50;99.90;;;;;;5033956;28;20202;-71
2022/04/04 01:41:21;;;;;;;1.52;0.98;;;25.40;99.90;;;;;;5032845;28;20225;-71
2022/04/04 01:43:52;;;;;;;3.60;1.20;;;25.40;99.90;;;;;;5034058;28;20658;-71
2022/04/04 01:46:26;;;;;;;2.08;0.98;;;25.50;99.90;;;;;;5033705;28;20199;-72
2022/04/04 01:48:58;;;;;;;2.75;1.00;;;25.60;99.90;;;;;;5032095;28;20699;-90
2022/04/04 01:51:29;;;;;;;7.20;1.13;;;25.80;99.90;;;;;;5052794;22;20230;-70
2022/04/04 01:54:00;;;;;;;4.68;0.98;;;25.70;99.90;;;;;;5059313;28;20253;-70
2022/04/04 01:56:33;;;;;;;3.20;1.10;;;25.80;99.90;;;;;;5062771;28;20200;-70
2022/04/04 01:59:04;;;;;;;3.55;0.90;;;25.90;99.90;;;;;;5073776;28;20234;-70
2022/04/04 02:01:36;;;;;;;2.75;1.17;;;25.90;99.90;;;;;;5070169;28;20305;-69
2022/04/04 02:04:06;;;;;;;3.20;1.30;;;26.00;99.90;;;;;;5070593;28;20197;-71
2022/04/04 02:06:37;;;;;;;4.05;1.20;;;26.10;99.90;;;;;;5068369;28;20204;-70
2022/04/04 02:09:08;;;;;;;3.53;1.05;;;26.20;99.90;;;;;;5072487;28;20780;-72
2022/04/04 02:11:40;;;;;;;4.40;1.10;;;26.10;99.90;;;;;;5068956;28;20209;-71
2022/04/04 02:14:11;;;;;;;4.93;1.30;;;26.10;99.90;;;;;;5066009;28;20197;-71
2022/04/04 02:16:42;;;;;;;1.85;1.15;;;26.20;99.90;;;;;;5064891;28;20204;-70
2022/04/04 02:19:13;;;;;;;2.65;1.00;;;26.10;99.90;;;;;;5072699;28;20193;-70
2022/04/04 02:21:43;;;;;;;2.80;1.17;;;26.00;99.90;;;;;;5072003;28;20224;-70
2022/04/04 02:24:14;;;;;;;4.10;1.05;;;25.80;99.90;;;;;;5063534;28;20189;-70
2022/04/04 02:26:47;;;;;;;3.55;0.98;;;25.60;99.90;;;;;;5064671;28;20620;-70
2022/04/04 02:29:17;;;;;;;3.83;1.00;;;25.50;99.90;;;;;;5066386;28;20201;-71
2022/04/04 02:31:48;;;;;;;5.22;1.60;;;25.40;99.90;;;;;;5067246;28;20280;-82
2022/04/04 02:34:18;;;;;;;4.05;1.20;;;25.40;99.90;;;;;;5066208;28;22007;-89
2022/04/04 02:36:49;;;;;;;3.30;0.90;;;25.40;99.90;;;;;;5065973;28;20200;-81
2022/04/04 02:39:20;;;;;;;2.30;0.93;;;25.50;99.90;;;;;;5066492;28;20242;-80
2022/04/04 02:41:55;;;;;;;3.42;1.00;;;25.60;99.90;;;;;;5066567;28;20219;-82
2022/04/04 02:44:26;;;;;;;2.95;1.10;;;25.80;99.90;;;;;;5072380;28;20197;-81
2022/04/04 02:46:56;;;;;;;2.70;1.00;;;25.90;99.90;;;;;;5072934;28;20193;-77
2022/04/04 02:49:29;;;;;;;6.40;1.95;;;26.00;99.90;;;;;;5071257;28;20197;-84
2022/04/04 02:51:59;;;;;;;4.97;1.10;;;26.00;99.90;;;;;;5054103;28;20320;-83
2022/04/04 02:54:30;;;;;;;2.20;1.15;;;26.10;99.90;;;;;;5047600;28;20201;-76
2022/04/04 02:57:01;;;;;;;2.70;1.25;;;26.30;99.90;;;;;;5048551;28;20202;-82
2022/04/04 02:59:32;;;;;;;3.72;1.10;;;26.40;99.90;;;;;;5049635;28;20194;-82
2022/04/04 03:02:02;;;;;;;2.10;0.95;;;26.50;99.90;;;;;;5053426;28;20259;-85
2022/04/04 03:04:33;;;;;;;3.83;1.08;;;26.60;99.90;;;;;;5049040;28;20204;-83
2022/04/04 03:07:05;;;;;;;3.05;0.90;;;26.60;99.90;;;;;;5052525;28;20205;-77
2022/04/04 03:09:35;;;;;;;2.13;0.95;;;26.70;99.90;;;;;;5051726;28;20208;-82
2022/04/04 03:12:10;;;;;;;5.10;1.00;;;26.80;99.90;;;;;;5051026;28;20263;-83
2022/04/04 03:14:40;;;;;;;2.15;1.10;;;26.60;99.90;;;;;;5052373;28;20201;-83
2022/04/04 03:17:14;;;;;;;3.22;0.90;;;26.50;99.90;;;;;;5051812;28;20201;-82
2022/04/04 03:19:44;;;;;;;2.45;1.00;;;26.40;99.90;;;;;;5044445;28;20201;-85
2022/04/04 03:22:15;;;;;;;3.53;0.90;;;26.20;99.90;;;;;;5045794;28;20217;-83
2022/04/04 03:24:46;;;;;;;5.00;1.08;;;26.20;99.90;;;;;;5052719;28;20193;-85
2022/04/04 03:27:18;;;;;;;2.40;1.20;;;26.20;99.90;;;;;;5053504;28;20327;-85
2022/04/04 03:29:49;;;;;;;3.22;1.08;;;26.30;99.90;;;;;;5050847;28;20206;-86
2022/04/04 03:32:19;;;;;;;3.70;0.90;;;26.40;99.90;;;;;;5049461;28;20284;-85
2022/04/04 03:34:50;;;;;;;2.55;1.00;;;26.50;99.90;;;;;;5053770;28;20193;-84
2022/04/04 03:37:21;;;;;;;5.05;0.85;;;26.50;99.90;;;;;;5051746;28;20216;-86
2022/04/04 03:39:51;;;;;;;2.85;0.98;;;26.50;99.90;;;;;;5052486;28;20189;-86
2022/04/04 03:42:24;;;;;;;2.90;1.02;;;26.60;99.90;;;;;;5052174;28;20702;-78
2022/04/04 03:44:55;;;;;;;3.72;1.02;;;26.60;99.90;;;;;;5052874;28;20229;-90
2022/04/04 03:47:25;;;;;;;2.92;1.10;;;26.50;99.90;;;;;;5052722;28;20284;-87
2022/04/04 03:49:56;;;;;;;4.38;1.08;;;26.50;99.90;;;;;;5052630;28;20198;-89
2022/04/04 03:52:27;;;;;;;1.38;1.00;;;26.50;99.90;;;;;;5043795;28;20237;-80
2022/04/04 03:54:57;;;;;;;5.03;1.05;;;26.50;99.90;;;;;;5042931;28;20198;-86
2022/04/04 03:57:31;;;;;;;6.53;1.02;;;26.50;99.90;;;;;;5049071;28;20251;-82
2022/04/04 04:00:01;;;;;;;3.13;0.70;;;26.50;99.90;;;;;;5052292;28;20546;-85
2022/04/04 04:02:32;;;;;;;2.78;0.82;;;26.50;99.90;;;;;;5051179;28;20218;-85
2022/04/04 04:05:03;;;;;;;1.30;0.70;;;26.50;99.90;;;;;;5044154;28;20566;-85
2022/04/04 04:07:33;;;;;;;2.30;0.82;;;26.60;99.90;;;;;;5051131;28;20202;-83
2022/04/04 04:10:05;;;;;;;3.80;1.00;;;26.60;99.90;;;;;;5047466;28;20197;-87
2022/04/04 04:12:39;;;;;;;4.20;1.10;;;26.60;99.90;;;;;;5052218;28;20197;-90
2022/04/04 04:15:11;;;;;;;3.40;0.93;;;26.70;99.90;;;;;;5045174;28;20192;-86
2022/04/04 04:17:42;;;;;;;4.30;0.90;;;26.70;99.90;;;;;;5051535;28;20258;-85
2022/04/04 04:20:23;;;;;;;3.80;1.10;;;26.70;99.90;;;;;;5043816;28;20216;-91
2022/04/04 04:22:56;;;;;;;3.10;0.70;;;26.60;99.90;;;;;;5051322;28;20799;-87
2022/04/04 04:25:29;;;;;;;1.08;0.70;;;26.60;99.90;;;;;;5052071;28;20194;-72
2022/04/04 04:28:03;;;;;;;5.40;1.10;;;26.60;99.90;;;;;;5044401;28;20262;-71
2022/04/04 04:30:34;;;;;;;1.98;0.73;;;26.40;99.90;;;;;;5051570;28;20243;-70
2022/04/04 04:33:05;;;;;;;1.58;0.88;;;26.30;99.90;;;;;;5051799;28;20675;-71
2022/04/04 04:35:36;;;;;;;2.28;0.95;;;26.40;99.90;;;;;;5048184;28;20282;-70
2022/04/04 04:38:07;;;;;;;1.73;0.70;;;26.50;99.90;;;;;;5045738;28;20198;-71
2022/04/04 04:40:38;;;;;;;4.57;1.50;;;26.60;99.90;;;;;;5049264;28;20656;-84
2022/04/04 04:43:10;;;;;;;5.03;1.23;;;26.70;99.90;;;;;;5050919;28;20213;-87
2022/04/04 04:45:41;;;;;;;5.10;1.70;;;26.90;99.90;;;;;;5049652;28;20201;-88
2022/04/04 04:48:12;;;;;;;4.30;0.90;;;26.90;99.90;;;;;;5048263;28;20200;-87
2022/04/04 04:50:43;;;;;;;4.00;0.90;;;27.10;99.90;;;;;;5049841;28;20213;-88
2022/04/04 04:53:14;;;;;;;3.28;0.80;;;27.10;99.90;;;;;;5053551;28;20197;-88
2022/04/04 04:55:45;;;;;;;2.20;0.90;;;27.30;99.90;;;;;;5054105;28;20202;-87
2022/04/04 04:58:17;;;;;;;3.22;1.00;;;27.30;99.90;;;;;;5057269;28;20215;-89
2022/04/04 05:00:48;;;;;;;3.83;0.82;;;27.30;99.90;;;;;;5057482;28;20625;-89
2022/04/04 05:03:27;;;;;;;2.88;0.80;;;27.20;99.90;;;;;;5055962;28;20217;-80
2022/04/04 05:05:58;;;;;;;1.70;0.88;;;27.20;99.90;;;;;;5056896;28;20194;-88
2022/04/04 05:08:29;;;;;;;1.55;0.82;;;27.20;99.90;;;;;;5056707;28;20197;-86
2022/04/04 05:11:00;;;;;;;2.30;0.75;;;27.20;99.90;;;;;;5056402;28;20276;-90
2022/04/04 05:13:33;;;;;;;2.33;0.80;;;27.20;99.90;;;;;;5052397;28;20729;-89
2022/04/04 05:16:07;;;;;;;2.00;0.88;;;27.40;99.90;;;;;;5056186;28;20185;-84
2022/04/04 05:18:37;;;;;;;3.63;0.90;;;27.30;99.90;;;;;;5056638;28;20193;-78
2022/04/04 05:21:08;;;;;;;1.70;0.75;;;27.20;99.90;;;;;;5056363;28;20605;-79
2022/04/04 05:23:39;;;;;;;2.40;0.80;;;27.20;99.90;;;;;;5043844;28;20186;-75
2022/04/04 05:26:10;;;;;;;3.85;0.85;;;27.20;99.90;;;;;;5056414;28;20671;-73
2022/04/04 05:28:42;;;;;;;2.38;0.75;;;27.20;99.90;;;;;;5053950;28;20564;-75
2022/04/04 05:31:13;;;;;;;3.15;0.98;;;27.20;99.90;;;;;;5055136;28;20251;-72
2022/04/04 05:33:43;;;;;;;3.08;0.90;;;27.10;99.90;;;;;;5047445;28;20199;-72
2022/04/04 05:36:14;;;;;;;2.05;0.80;;;27.10;99.90;;;;;;5049312;28;20723;-72
2022/04/04 05:38:44;;;;;;;2.30;0.68;;;27.20;99.90;;;;;;5044492;28;20603;-71
2022/04/04 05:41:15;;;;;;;3.08;0.70;;;27.10;99.90;;;;;;5050289;28;20190;-71
2022/04/04 05:43:48;;;;;;;2.33;0.80;;;27.10;99.90;;;;;;5055166;28;20580;-83
2022/04/04 05:46:19;;;;;;;3.40;0.80;;;27.10;99.90;;;;;;5054940;28;20278;-75
2022/04/04 05:48:50;;;;;;;1.35;0.60;;;27.00;99.90;;;;;;5045715;28;20193;-77
2022/04/04 05:51:21;;;;;;;2.03;0.55;;;27.00;99.90;;;;;;5047859;28;20229;-81
2022/04/04 05:53:52;;;;;;;3.78;0.60;;;26.90;99.90;;;;;;5046722;28;20198;-75
2022/04/04 05:56:23;;;;;;;2.28;0.68;;;26.90;99.90;;;;;;5049910;28;20190;-71
2022/04/04 05:58:55;;;;;;;3.92;1.00;;;27.00;99.90;;;;;;5040665;28;20183;-71
2022/04/04 06:01:26;;;;;;;2.15;1.02;;;27.00;99.90;;;;;;5039519;28;20637;-77
2022/04/04 06:03:57;;;;;;;2.60;0.90;;;26.70;99.90;;;;;;5050793;28;20205;-72
2022/04/04 06:06:28;;;;;;;2.60;1.10;;;26.50;99.90;;;;;;5054841;28;20182;-70
2022/04/04 06:08:59;;;;;;;2.50;1.00;;;26.30;99.90;;;;;;5047195;28;20194;-73
2022/04/04 06:11:29;;;;;;;2.65;0.85;;;26.20;99.90;;;;;;5046865;28;20275;-89
2022/04/04 06:14:02;;;;;;;4.88;0.98;;;26.10;99.90;;;;;;5049478;28;20269;-79
2022/04/04 06:16:32;;;;;;;3.20;0.85;;;25.90;99.90;;;;;;5047400;28;20194;-72
2022/04/04 06:19:03;;;;;;;4.50;1.05;;;25.80;99.90;;;;;;5052458;28;20194;-71
2022/04/04 06:21:34;;;;;;;2.03;1.00;;;25.70;99.90;;;;;;5038398;28;20198;-71
2022/04/04 06:24:04;;;;;;;2.78;1.10;;;25.60;99.90;;;;;;5047855;28;20189;-86
2022/04/04 06:26:35;;;;;;;2.25;1.10;;;25.50;99.90;;;;;;5051380;28;20194;-71
2022/04/04 06:29:09;;;;;;;2.13;1.10;;;25.40;99.90;;;;;;5051999;28;20181;-70
2022/04/04 06:31:39;;;;;;;6.95;1.20;;;25.40;99.90;;;;;;5035743;28;20629;-70
2022/04/04 06:34:13;;;;;;;2.22;1.10;;;25.30;99.90;;;;;;5044975;28;20186;-70
2022/04/04 06:36:44;;;;;;;2.92;1.20;;;25.20;99.90;;;;;;5043152;28;20190;-71
2022/04/04 06:39:15;;;;;;;5.18;1.02;;;25.10;99.90;;;;;;5052652;28;20252;-71
2022/04/04 06:41:45;;;;;;;4.10;1.20;;;25.00;99.90;;;;;;5054266;28;20190;-70
2022/04/04 06:44:18;;;;;;;2.80;1.20;;;24.90;99.90;;;;;;5045573;28;20559;-74
2022/04/04 06:46:49;;;;;;;6.75;1.40;;;24.80;99.90;;;;;;5052408;28;20194;-71
2022/04/04 06:49:19;;;;;;;2.88;1.00;;;24.80;99.90;;;;;;5053751;28;20538;-76
2022/04/04 06:51:51;;;;;;;2.60;1.20;;;24.70;99.90;;;;;;5052731;28;20236;-75
2022/04/04 06:54:22;;;;;;;3.88;1.15;;;24.80;99.90;;;;;;5047426;28;20225;-71
2022/04/04 06:56:53;;;;;;;2.85;0.93;;;24.70;99.90;;;;;;5045529;28;20244;-71
2022/04/04 06:59:26;;;;;;;4.70;1.23;;;24.60;99.90;;;;;;5045269;28;20653;-71
2022/04/04 07:01:56;;;;;;;5.00;1.10;;;24.60;99.90;;;;;;5038499;28;20222;-70
2022/04/04 07:04:27;;;;;;;3.13;1.10;;;24.60;99.90;;;;;;5052466;28;20240;-71
2022/04/04 07:06:58;;;;;;;2.63;1.95;;;24.40;99.90;;;;;;5050968;28;20194;-71
2022/04/04 07:09:29;;;;;;;3.47;1.60;;;24.40;99.90;;;;;;5053013;28;20190;-74
2022/04/04 07:11:59;;;;;;;4.10;1.48;;;24.30;99.90;;;;;;5045801;28;20186;-76
2022/04/04 07:14:32;;;;;;;2.03;1.10;;;24.30;99.90;;;;;;5036401;28;20259;-71
2022/04/04 07:17:03;;;;;;;4.40;1.10;;;24.10;99.90;;;;;;5053324;28;20197;-71
2022/04/04 07:19:33;;;;;;;2.45;1.00;;;24.10;99.90;;;;;;5048273;28;20240;-70
2022/04/04 07:22:04;;;;;;;4.07;1.13;;;24.10;99.90;;;;;;5051366;28;20224;-79
2022/04/04 07:24:35;;;;;;;1.92;1.05;;;24.00;99.90;;;;;;5042243;28;20201;-70
2022/04/04 07:27:06;;;;;;;4.05;1.17;;;23.90;99.90;;;;;;5035974;28;20602;-70
2022/04/04 07:29:38;;;;;;;2.53;0.90;;;23.80;99.90;;;;;;5044882;28;20189;-71
2022/04/04 07:32:10;;;;;;;3.25;1.02;;;23.70;99.90;;;;;;5051063;28;20194;-70
2022/04/04 07:34:41;;;;;;;2.00;0.90;;;23.60;99.90;;;;;;5046470;28;20213;-70
2022/04/04 07:37:11;;;;;;;3.88;1.17;;;23.50;99.90;;;;;;5050081;28;20197;-70
2022/04/04 07:39:42;;;;;;;6.20;1.50;;;23.40;99.90;;;;;;5046733;28;20198;-70
2022/04/04 07:42:13;;;;;;;2.00;1.13;;;23.20;99.90;;;;;;5040185;28;20214;-70
2022/04/04 07:44:45;;;;;;;5.95;1.13;;;23.10;99.90;;;;;;5047763;28;20285;-88
2022/04/04 07:47:16;;;;;;;3.10;1.00;;;23.00;99.90;;;;;;5052912;28;20255;-71
2022/04/04 07:52:14;;;;;;;7.15;1.70;;;22.90;99.90;;;;;;5023053;28;20679;-79
2022/04/04 07:54:45;;;;;;;6.18;1.58;;;22.80;99.90;;;;;;5027093;28;20195;-79
2022/04/04 07:57:15;;;;;;;4.65;2.10;;;22.70;99.90;;;;;;5023679;28;20194;-80
2022/04/04 07:59:50;;;;;;;3.10;2.25;;;22.60;99.90;;;;;;5028963;28;20187;-78
2022/04/04 08:02:21;;;;;;;8.40;3.78;;;22.60;99.90;;;;;;5030622;28;20694;-83
2022/04/04 08:04:52;;;;;;;9.15;3.30;;;22.50;99.90;;;;;;5031471;28;20230;-81
2022/04/04 08:07:22;;;;;;;6.22;2.40;;;22.40;99.90;;;;;;5032366;28;20186;-81
2022/04/04 08:09:53;;;;;;;6.20;2.60;;;22.40;99.90;;;;;;5031339;28;20564;-81
2022/04/04 08:12:27;;;;;;;5.38;2.03;;;22.30;99.90;;;;;;5029145;28;20587;-81
2022/04/04 08:15:00;;;;;;;5.18;1.70;;;22.20;99.90;;;;;;5031433;28;20244;-81
2022/04/04 08:17:30;;;;;;;3.85;1.40;;;22.20;99.90;;;;;;5031573;28;20216;-81
2022/04/04 08:20:01;;;;;;;3.92;1.40;;;22.20;99.90;;;;;;5032452;28;20248;-81
2022/04/04 08:22:32;;;;;;;3.30;1.38;;;22.10;99.90;;;;;;5028667;28;20276;-81
2022/04/04 08:25:02;;;;;;;5.65;1.48;;;22.10;99.90;;;;;;5031709;28;20190;-82
2022/04/04 08:27:33;;;;;;;4.45;1.50;;;22.10;99.90;;;;;;5032306;28;20273;-81
2022/04/04 08:30:06;;;;;;;3.28;1.40;;;22.00;99.90;;;;;;5030755;28;20198;-78
2022/04/04 08:32:38;;;;;;;4.18;1.58;;;22.00;99.90;;;;;;5030764;28;20194;-79
2022/04/04 08:35:10;;;;;;;5.03;1.73;;;21.90;99.90;;;;;;5025895;28;20187;-80
2022/04/04 08:37:43;;;;;;;8.38;2.10;;;21.80;99.90;;;;;;5027800;28;20209;-81
2022/04/04 08:40:18;;;;;;;6.65;2.33;;;21.70;99.90;;;;;;5031387;28;20191;-80
2022/04/04 08:42:49;;;;;;;5.63;2.30;;;21.70;99.90;;;;;;5028076;28;20616;-80
2022/04/04 08:45:22;;;;;;;3.80;2.28;;;21.60;99.90;;;;;;5027428;28;20225;-80
2022/04/04 08:47:52;;;;;;;7.03;2.50;;;21.50;99.90;;;;;;5024317;28;20198;-80
2022/04/04 08:50:23;;;;;;;5.38;2.85;;;21.50;99.90;;;;;;5043652;28;20652;-81
2022/04/04 08:52:54;;;;;;;6.22;2.33;;;21.40;99.90;;;;;;5052694;28;20228;-79
2022/04/04 08:55:24;;;;;;;4.85;2.30;;;21.30;99.90;;;;;;5045131;28;20186;-79
2022/04/04 08:57:56;;;;;;;4.05;2.03;;;21.30;99.90;;;;;;5046086;28;20638;-80
2022/04/04 09:00:28;;;;;;;4.70;2.10;;;21.20;99.90;;;;;;5052368;28;20190;-80
2022/04/04 09:03:04;;;;;;;3.70;2.03;;;21.20;99.90;;;;;;5046633;28;20210;-79
2022/04/04 09:05:36;;;;;;;7.00;2.40;;;21.20;99.90;;;;;;5052094;28;20531;-79
2022/04/04 09:08:09;;;;;;;7.10;2.42;;;21.20;99.90;;;;;;5052670;28;20247;-81
2022/04/04 09:10:44;;;;;;;4.82;2.13;;;21.10;99.90;;;;;;5052422;28;20189;-79
2022/04/04 09:13:15;;;;;;;5.85;2.38;;;21.10;99.90;;;;;;5045126;28;20655;-81
2022/04/04 09:15:59;;;;;;;5.18;2.20;;;21.00;99.90;;;;;;5052589;28;20186;-81
2022/04/04 09:18:47;;;;;;;6.38;2.10;;;21.00;99.90;;;;;;5046701;28;20613;-79
2022/04/04 09:21:32;;;;;;;4.93;2.35;;;20.90;99.90;;;;;;5044537;28;20197;-80
2022/04/04 09:24:07;;;;;;;3.67;1.77;;;20.90;99.90;;;;;;5052210;28;20217;-81
2022/04/04 09:26:38;;;;;;;4.38;1.80;;;20.80;99.90;;;;;;5052357;28;20658;-80
2022/04/04 09:29:18;;;;;;;4.68;2.00;;;20.80;99.90;;;;;;5052036;28;20263;-81
2022/04/04 09:32:05;;;;;;;3.20;1.90;;;20.80;99.90;;;;;;5052868;28;20182;-79
2022/04/04 09:34:57;;;;;;;4.88;1.80;;;20.70;99.90;;;;;;5050030;28;20262;-81
2022/04/04 09:37:30;;;;;;;4.00;1.60;;;20.70;99.90;;;;;;5046096;28;20182;-81
2022/04/04 09:40:15;;;;;;;4.97;1.80;;;20.80;99.90;;;;;;5055911;28;20196;-80
2022/04/04 09:42:59;;;;;;;5.95;2.05;;;20.70;99.90;;;;;;5056112;28;20269;-81
2022/04/04 09:45:30;;;;;;;4.82;2.00;;;20.60;99.90;;;;;;5048308;28;20231;-81
2022/04/04 09:48:03;;;;;;;3.78;2.10;;;20.70;99.90;;;;;;5056238;28;20190;-79
2022/04/04 09:50:44;;;;;;;6.65;2.80;;;20.60;99.90;;;;;;5048081;28;20232;-79
2022/04/04 09:53:20;;;;;;;6.53;2.55;;;20.50;99.90;;;;;;5055387;28;20197;-79
2022/04/04 09:55:55;;;;;;;7.57;2.50;;;20.40;99.90;;;;;;5055754;28;20208;-80
2022/04/04 09:58:26;;;;;;;4.35;2.45;;;20.50;99.90;;;;;;5056186;28;20535;-81
2022/04/04 10:00:58;;;;;;;5.40;2.50;;;20.40;99.90;;;;;;5056047;28;20194;-80
2022/04/04 10:03:33;;;;;;;6.35;2.20;;;20.40;99.90;;;;;;5055859;28;20205;-80
2022/04/04 10:06:07;;;;;;;7.05;2.80;;;20.40;99.90;;;;;;5055319;28;20185;-80
2022/04/04 10:08:39;;;;;;;5.25;2.40;;;20.40;99.90;;;;;;5055076;28;20239;-79
2022/04/04 10:11:12;;;;;;;5.18;2.28;;;20.30;99.90;;;;;;5055353;28;20201;-81
2022/04/04 10:13:43;;;;;;;4.60;2.30;;;20.30;99.90;;;;;;5047460;28;20186;-81
2022/04/04 10:16:14;;;;;;;8.40;2.50;;;20.30;99.90;;;;;;5055257;28;20198;-79
2022/04/04 10:18:48;;;;;;;6.35;2.33;;;20.30;99.90;;;;;;5047461;28;20675;-78
2022/04/04 10:21:22;;;;;;;7.28;2.50;;;20.20;99.90;;;;;;5055173;28;20193;-80
2022/04/04 10:23:56;;;;;;;4.10;2.10;;;20.20;99.90;;;;;;5047658;28;20579;-81
2022/04/04 10:26:31;;;;;;;5.07;2.30;;;20.20;99.90;;;;;;5054932;28;20190;-79
2022/04/04 10:29:15;;;;;;;5.18;2.25;;;20.10;99.90;;;;;;5055034;28;20229;-79
2022/04/04 10:31:48;;;;;;;4.45;2.10;;;20.10;99.90;;;;;;5054793;28;20212;-81
2022/04/04 10:34:25;;;;;;;7.15;2.40;;;20.10;99.90;;;;;;5050677;28;20185;-79
2022/04/04 10:37:00;;;;;;;3.97;2.20;;;20.10;99.90;;;;;;5046954;28;20185;-81
2022/04/04 10:39:38;;;;;;;6.20;2.75;;;20.00;99.90;;;;;;5054724;28;20250;-78
2022/04/04 10:42:31;;;;;;;6.80;2.78;;;20.00;99.90;;;;;;5054841;28;20205;-79
2022/04/04 10:45:03;;;;;;;5.63;2.55;;;20.00;99.90;;;;;;5047278;28;20217;-80
2022/04/04 10:47:36;;;;;;;6.10;2.63;;;19.90;99.90;;;;;;5054346;28;20189;-80
2022/04/04 10:50:24;;;;;;;3.45;2.35;;;19.90;99.90;;;;;;5054469;28;20193;-80
2022/04/04 10:52:55;;;;;;;4.00;2.80;;;19.90;99.90;;;;;;5054268;28;20732;-80
2022/04/04 10:55:48;;;;;;;5.80;2.97;;;19.80;99.90;;;;;;5054507;28;20193;-81
2022/04/04 10:58:25;;;;;;;6.00;2.80;;;19.80;99.90;;;;;;5048519;28;20233;-81
2022/04/04 11:01:16;;;;;;;5.93;2.70;;;19.80;99.90;;;;;;5054452;28;20259;-80
2022/04/04 11:04:01;;;;;;;7.65;2.72;;;19.80;99.90;;;;;;5049108;28;20221;-81
2022/04/04 11:09:47;;;;;;;5.00;2.60;;;19.70;99.90;;;;;;5054255;28;20251;-79
2022/04/04 11:12:18;;;;;;;8.57;2.78;;;19.70;99.90;;;;;;5047575;28;20189;-79
2022/04/04 11:14:59;;;;;;;4.63;2.88;;;19.70;99.90;;;;;;5053767;28;20193;-79
2022/04/04 11:17:36;;;;;;;4.90;2.53;;;19.60;99.90;;;;;;5054304;28;20193;-80
2022/04/04 11:20:21;;;;;;;4.03;2.58;;;19.70;99.90;;;;;;5054539;28;20190;-78
2022/04/04 11:22:56;;;;;;;5.72;3.00;;;19.60;99.90;;;;;;5054625;28;20201;-78
2022/04/04 11:25:33;;;;;;;5.10;2.60;;;19.60;99.90;;;;;;5054671;28;20193;-79
2022/04/04 11:28:04;;;;;;;6.38;2.60;;;19.50;99.90;;;;;;5054145;28;20189;-79
2022/04/04 11:30:36;;;;;;;7.22;2.47;;;19.60;99.90;;;;;;5054001;28;20190;-79
2022/04/04 11:33:11;;;;;;;4.10;2.40;;;19.50;99.90;;;;;;5036153;28;20270;-80
2022/04/04 11:35:42;;;;;;;6.03;2.58;;;19.50;99.90;;;;;;5052859;28;20648;-80
2022/04/04 11:38:17;;;;;;;4.88;2.50;;;19.40;99.90;;;;;;5046140;28;20202;-79
2022/04/04 11:40:53;;;;;;;4.28;2.47;;;19.40;99.90;;;;;;5048583;28;20209;-80
2022/04/04 11:43:25;;;;;;;5.28;2.38;;;19.30;99.90;;;;;;5045594;28;20188;-81
2022/04/04 11:45:56;;;;;;;5.20;2.45;;;19.30;99.90;;;;;;5049658;28;20545;-81
2022/04/04 11:48:36;;;;;;;5.82;2.20;;;19.30;99.90;;;;;;5053543;28;20193;-80
2022/04/04 11:51:11;;;;;;;6.38;2.70;;;19.20;99.90;;;;;;5066248;28;20229;-79
2022/04/04 11:53:45;;;;;;;5.63;3.15;;;19.10;99.90;;;;;;5059986;28;20190;-80
2022/04/04 11:56:21;;;;;;;8.50;4.55;;;19.10;99.90;;;;;;5040490;28;20221;-81
2022/04/04 11:58:54;;;;;;;46.85;33.38;;;19.00;99.90;;;;;;5050065;28;20185;-80
2022/04/04 12:01:29;;;;;;;8.60;4.95;;;19.10;99.90;;;;;;5049350;28;20239;-81
2022/04/04 12:04:00;;;;;;;8.00;4.10;;;19.00;99.90;;;;;;5048566;28;20237;-81
2022/04/04 12:06:31;;;;;;;6.00;3.05;;;19.00;99.90;;;;;;5053105;28;20192;-81
2022/04/04 12:09:10;;;;;;;8.90;3.13;;;19.00;99.90;;;;;;5051043;28;20182;-79
2022/04/04 12:11:41;;;;;;;6.43;3.30;;;19.00;99.90;;;;;;5048349;28;20193;-81
2022/04/04 12:14:15;;;;;;;7.50;3.95;;;19.00;99.90;;;;;;5047833;28;20198;-81
2022/04/04 12:16:53;;;;;;;10.15;3.38;;;19.00;99.90;;;;;;5046785;28;20186;-80
2022/04/04 12:19:25;;;;;;;6.85;3.70;;;18.90;99.90;;;;;;5049955;28;20235;-80
2022/04/04 12:21:56;;;;;;;6.72;3.40;;;18.80;99.90;;;;;;5044996;28;20201;-80
2022/04/04 12:27:17;;;;;;;6.20;3.42;;;18.80;99.90;;;;;;5051710;28;20197;-80
2022/04/04 12:29:48;;;;;;;6.20;3.38;;;18.80;99.90;;;;;;5047258;28;20193;-79
2022/04/04 12:32:20;;;;;;;6.60;3.40;;;18.90;99.90;;;;;;5044997;28;20228;-80
2022/04/04 12:35:01;;;;;;;8.45;3.90;;;18.80;99.90;;;;;;5050997;28;20185;-79
2022/04/04 12:37:39;;;;;;;6.47;3.20;;;18.80;99.90;;;;;;5043172;28;20182;-81
2022/04/04 12:40:20;;;;;;;6.85;3.15;;;18.80;99.90;;;;;;5039162;28;20218;-80
2022/04/04 12:42:51;;;;;;;9.98;3.40;;;18.80;99.90;;;;;;5044664;28;20189;-80
2022/04/04 12:45:23;;;;;;;6.32;3.60;;;18.80;99.90;;;;;;5046564;28;20734;-79
2022/04/04 12:48:00;;;;;;;8.60;3.50;;;18.70;99.90;;;;;;5045284;28;20194;-80
2022/04/04 12:50:43;;;;;;;7.43;3.20;;;18.70;99.90;;;;;;5049268;28;20232;-80
2022/04/04 12:53:14;;;;;;;7.95;3.10;;;18.70;99.90;;;;;;5045685;28;20189;-80
2022/04/04 12:56:06;;;;;;;6.07;3.38;;;18.70;99.90;;;;;;5042867;28;20248;-81
2022/04/04 12:58:37;;;;;;;8.35;3.03;;;18.60;99.90;;;;;;5049750;28;20656;-82
2022/04/04 13:01:17;;;;;;;5.18;3.38;;;18.60;99.90;;;;;;5037903;28;20240;-80
2022/04/04 13:03:53;;;;;;;7.38;3.22;;;18.50;99.90;;;;;;5048656;28;20268;-80
2022/04/04 13:06:25;;;;;;;7.50;3.50;;;18.60;99.90;;;;;;5045640;28;20204;-79
2022/04/04 13:08:57;;;;;;;7.90;3.40;;;18.60;99.90;;;;;;5046652;28;20198;-81
2022/04/04 13:11:31;;;;;;;7.40;3.10;;;18.60;99.90;;;;;;5047964;28;20186;-81
2022/04/04 13:14:06;;;;;;;6.30;3.42;;;18.50;99.90;;;;;;5051335;28;20197;-80
2022/04/04 13:16:39;;;;;;;7.43;3.25;;;18.50;99.90;;;;;;5048239;28;20182;-80
2022/04/04 13:19:11;;;;;;;5.57;3.13;;;18.50;99.90;;;;;;5043828;28;20200;-79
2022/04/04 13:21:43;;;;;;;8.45;3.38;;;18.50;99.90;;;;;;5049708;28;20224;-80